sensor_id;sensor_type;location;lat;lon;timestamp;P1;durP1;ratioP1;P2;durP2;ratioP2
47367;SDS011;34646;47.964;7.982;2023-04-06T00:02:15;2.28;;;1.35;;
47367;SDS011;34646;47.964;7.982;2023-04-06T00:08:16;1.67;;;1.00;;
47367;SDS011;34646;47.964;7.982;2023-04-06T00:14:16;2.27;;;1.00;;
47367;SDS011;34646;47.964;7.982;2023-04-06T00:20:17;3.17;;;1.10;;
47367;SDS011;34646;47.964;7.982;2023-04-06T00:26:19;2.28;;;1.05;;
47367;SDS011;34646;47.964;7.982;2023-04-06T00:32:21;3.00;;;1.25;;
47367;SDS011;34646;47.964;7.982;2023-04-06T00:38:21;2.10;;;1.10;;
47367;SDS011;34646;47.964;7.982;2023-04-06T00:44:22;3.17;;;1.03;;
47367;SDS011;34646;47.964;7.982;2023-04-06T00:50:24;1.77;;;1.05;;
47367;SDS011;34646;47.964;7.982;2023-04-06T00:56:25;2.53;;;0.97;;
47367;SDS011;34646;47.964;7.982;2023-04-06T01:02:27;2.35;;;1.08;;
47367;SDS011;34646;47.964;7.982;2023-04-06T01:08:29;1.98;;;1.00;;
47367;SDS011;34646;47.964;7.982;2023-04-06T01:14:43;2.08;;;1.05;;
47367;SDS011;34646;47.964;7.982;2023-04-06T01:20:44;2.73;;;1.20;;
47367;SDS011;34646;47.964;7.982;2023-04-06T01:26:45;1.60;;;0.90;;
47367;SDS011;34646;47.964;7.982;2023-04-06T01:32:46;2.20;;;0.97;;
47367;SDS011;34646;47.964;7.982;2023-04-06T01:38:51;1.42;;;1.10;;
47367;SDS011;34646;47.964;7.982;2023-04-06T01:44:56;2.30;;;1.15;;
47367;SDS011;34646;47.964;7.982;2023-04-06T01:50:57;1.90;;;1.20;;
47367;SDS011;34646;47.964;7.982;2023-04-06T01:57:04;1.88;;;1.20;;
47367;SDS011;34646;47.964;7.982;2023-04-06T02:03:16;1.20;;;0.90;;
47367;SDS011;34646;47.964;7.982;2023-04-06T02:09:18;2.08;;;1.30;;
47367;SDS011;34646;47.964;7.982;2023-04-06T02:15:19;2.10;;;0.90;;
47367;SDS011;34646;47.964;7.982;2023-04-06T02:21:21;4.32;;;1.00;;
47367;SDS011;34646;47.964;7.982;2023-04-06T02:27:22;2.53;;;0.90;;
47367;SDS011;34646;47.964;7.982;2023-04-06T02:33:22;1.47;;;0.90;;
47367;SDS011;34646;47.964;7.982;2023-04-06T02:39:23;1.20;;;0.80;;
47367;SDS011;34646;47.964;7.982;2023-04-06T02:45:24;2.07;;;0.97;;
47367;SDS011;34646;47.964;7.982;2023-04-06T02:51:26;1.70;;;0.82;;
47367;SDS011;34646;47.964;7.982;2023-04-06T02:57:31;2.03;;;1.20;;
47367;SDS011;34646;47.964;7.982;2023-04-06T03:03:32;1.67;;;1.00;;
47367;SDS011;34646;47.964;7.982;2023-04-06T03:09:33;1.50;;;0.80;;
47367;SDS011;34646;47.964;7.982;2023-04-06T03:15:35;3.40;;;1.10;;
47367;SDS011;34646;47.964;7.982;2023-04-06T03:21:46;1.57;;;0.90;;
47367;SDS011;34646;47.964;7.982;2023-04-06T03:27:48;1.30;;;0.80;;
47367;SDS011;34646;47.964;7.982;2023-04-06T03:33:52;1.63;;;0.90;;
47367;SDS011;34646;47.964;7.982;2023-04-06T03:40:00;2.53;;;0.98;;
47367;SDS011;34646;47.964;7.982;2023-04-06T03:46:02;3.28;;;1.20;;
47367;SDS011;34646;47.964;7.982;2023-04-06T03:52:03;2.87;;;1.00;;
47367;SDS011;34646;47.964;7.982;2023-04-06T03:58:04;1.10;;;0.73;;
47367;SDS011;34646;47.964;7.982;2023-04-06T04:04:05;2.83;;;1.00;;
47367;SDS011;34646;47.964;7.982;2023-04-06T04:10:06;1.63;;;0.70;;
47367;SDS011;34646;47.964;7.982;2023-04-06T04:16:07;1.77;;;0.93;;
47367;SDS011;34646;47.964;7.982;2023-04-06T04:22:09;2.47;;;1.00;;
47367;SDS011;34646;47.964;7.982;2023-04-06T04:28:13;1.85;;;1.00;;
47367;SDS011;34646;47.964;7.982;2023-04-06T04:34:16;1.75;;;0.85;;
47367;SDS011;34646;47.964;7.982;2023-04-06T04:40:16;1.00;;;0.70;;
47367;SDS011;34646;47.964;7.982;2023-04-06T04:46:23;2.05;;;0.98;;
47367;SDS011;34646;47.964;7.982;2023-04-06T04:52:26;1.50;;;0.90;;
47367;SDS011;34646;47.964;7.982;2023-04-06T04:58:37;1.97;;;0.90;;
47367;SDS011;34646;47.964;7.982;2023-04-06T05:04:38;1.40;;;0.85;;
47367;SDS011;34646;47.964;7.982;2023-04-06T05:10:41;3.28;;;1.00;;
47367;SDS011;34646;47.964;7.982;2023-04-06T05:16:42;1.60;;;0.80;;
47367;SDS011;34646;47.964;7.982;2023-04-06T05:22:43;2.93;;;1.10;;
47367;SDS011;34646;47.964;7.982;2023-04-06T05:28:45;2.22;;;1.02;;
47367;SDS011;34646;47.964;7.982;2023-04-06T05:34:48;3.13;;;0.90;;
47367;SDS011;34646;47.964;7.982;2023-04-06T05:40:50;5.57;;;1.30;;
47367;SDS011;34646;47.964;7.982;2023-04-06T05:46:55;4.07;;;1.10;;
47367;SDS011;34646;47.964;7.982;2023-04-06T05:52:55;3.93;;;0.90;;
47367;SDS011;34646;47.964;7.982;2023-04-06T05:58:59;2.10;;;1.00;;
47367;SDS011;34646;47.964;7.982;2023-04-06T06:05:03;5.57;;;1.00;;
47367;SDS011;34646;47.964;7.982;2023-04-06T06:11:04;7.40;;;1.05;;
47367;SDS011;34646;47.964;7.982;2023-04-06T06:17:05;3.30;;;1.37;;
47367;SDS011;34646;47.964;7.982;2023-04-06T06:23:07;4.10;;;1.38;;
47367;SDS011;34646;47.964;7.982;2023-04-06T06:29:09;2.33;;;1.10;;
47367;SDS011;34646;47.964;7.982;2023-04-06T06:35:12;4.80;;;1.52;;
47367;SDS011;34646;47.964;7.982;2023-04-06T06:41:14;8.35;;;1.55;;
47367;SDS011;34646;47.964;7.982;2023-04-06T06:47:15;6.47;;;1.00;;
47367;SDS011;34646;47.964;7.982;2023-04-06T06:53:18;6.45;;;1.30;;
47367;SDS011;34646;47.964;7.982;2023-04-06T06:59:20;5.65;;;1.15;;
47367;SDS011;34646;47.964;7.982;2023-04-06T07:05:21;4.57;;;1.40;;
47367;SDS011;34646;47.964;7.982;2023-04-06T07:11:21;4.87;;;1.30;;
47367;SDS011;34646;47.964;7.982;2023-04-06T07:17:22;4.57;;;1.00;;
47367;SDS011;34646;47.964;7.982;2023-04-06T07:23:23;2.90;;;1.13;;
47367;SDS011;34646;47.964;7.982;2023-04-06T07:29:24;4.77;;;1.20;;
47367;SDS011;34646;47.964;7.982;2023-04-06T07:35:25;4.10;;;1.00;;
47367;SDS011;34646;47.964;7.982;2023-04-06T07:41:27;3.08;;;1.30;;
47367;SDS011;34646;47.964;7.982;2023-04-06T07:47:28;2.80;;;1.20;;
47367;SDS011;34646;47.964;7.982;2023-04-06T07:53:29;3.50;;;1.27;;
47367;SDS011;34646;47.964;7.982;2023-04-06T07:59:30;6.45;;;2.28;;
47367;SDS011;34646;47.964;7.982;2023-04-06T08:05:31;7.30;;;1.43;;
47367;SDS011;34646;47.964;7.982;2023-04-06T08:11:31;4.90;;;1.03;;
47367;SDS011;34646;47.964;7.982;2023-04-06T08:17:32;4.30;;;1.20;;
47367;SDS011;34646;47.964;7.982;2023-04-06T08:23:33;5.82;;;2.17;;
47367;SDS011;34646;47.964;7.982;2023-04-06T08:29:34;4.73;;;1.20;;
47367;SDS011;34646;47.964;7.982;2023-04-06T08:35:35;6.67;;;1.20;;
47367;SDS011;34646;47.964;7.982;2023-04-06T08:41:36;9.23;;;1.30;;
47367;SDS011;34646;47.964;7.982;2023-04-06T08:47:37;4.07;;;1.30;;
47367;SDS011;34646;47.964;7.982;2023-04-06T08:53:38;3.53;;;1.00;;
47367;SDS011;34646;47.964;7.982;2023-04-06T08:59:39;4.40;;;1.13;;
47367;SDS011;34646;47.964;7.982;2023-04-06T09:05:40;6.07;;;1.37;;
47367;SDS011;34646;47.964;7.982;2023-04-06T09:11:50;6.40;;;1.20;;
47367;SDS011;34646;47.964;7.982;2023-04-06T09:17:51;11.00;;;1.47;;
47367;SDS011;34646;47.964;7.982;2023-04-06T09:24:00;7.55;;;1.40;;
47367;SDS011;34646;47.964;7.982;2023-04-06T09:30:03;4.35;;;1.30;;
47367;SDS011;34646;47.964;7.982;2023-04-06T09:36:04;2.95;;;1.00;;
47367;SDS011;34646;47.964;7.982;2023-04-06T09:42:05;3.33;;;1.10;;
47367;SDS011;34646;47.964;7.982;2023-04-06T09:48:06;5.23;;;1.23;;
47367;SDS011;34646;47.964;7.982;2023-04-06T09:54:07;2.27;;;1.07;;
47367;SDS011;34646;47.964;7.982;2023-04-06T10:00:09;3.65;;;1.05;;
47367;SDS011;34646;47.964;7.982;2023-04-06T10:06:18;4.13;;;1.17;;
47367;SDS011;34646;47.964;7.982;2023-04-06T10:12:22;7.13;;;1.42;;
47367;SDS011;34646;47.964;7.982;2023-04-06T10:18:23;6.40;;;1.50;;
47367;SDS011;34646;47.964;7.982;2023-04-06T10:24:24;4.00;;;1.40;;
47367;SDS011;34646;47.964;7.982;2023-04-06T10:30:25;4.40;;;1.37;;
47367;SDS011;34646;47.964;7.982;2023-04-06T10:36:27;3.25;;;1.40;;
47367;SDS011;34646;47.964;7.982;2023-04-06T10:42:37;6.85;;;1.38;;
47367;SDS011;34646;47.964;7.982;2023-04-06T10:48:42;5.68;;;1.38;;
47367;SDS011;34646;47.964;7.982;2023-04-06T10:54:43;7.10;;;1.40;;
47367;SDS011;34646;47.964;7.982;2023-04-06T11:00:48;4.30;;;1.63;;
47367;SDS011;34646;47.964;7.982;2023-04-06T11:06:49;8.45;;;2.05;;
47367;SDS011;34646;47.964;7.982;2023-04-06T11:12:53;14.10;;;2.10;;
47367;SDS011;34646;47.964;7.982;2023-04-06T11:18:55;7.72;;;2.05;;
47367;SDS011;34646;47.964;7.982;2023-04-06T11:25:07;13.48;;;1.40;;
47367;SDS011;34646;47.964;7.982;2023-04-06T11:31:11;16.08;;;2.03;;
47367;SDS011;34646;47.964;7.982;2023-04-06T11:37:12;12.57;;;2.00;;
47367;SDS011;34646;47.964;7.982;2023-04-06T11:43:13;13.93;;;1.97;;
47367;SDS011;34646;47.964;7.982;2023-04-06T11:49:15;12.00;;;1.83;;
47367;SDS011;34646;47.964;7.982;2023-04-06T11:55:17;8.47;;;1.67;;
47367;SDS011;34646;47.964;7.982;2023-04-06T12:01:18;12.57;;;1.80;;
47367;SDS011;34646;47.964;7.982;2023-04-06T12:07:19;17.47;;;2.23;;
47367;SDS011;34646;47.964;7.982;2023-04-06T12:13:20;6.50;;;1.47;;
47367;SDS011;34646;47.964;7.982;2023-04-06T12:19:21;7.50;;;1.53;;
47367;SDS011;34646;47.964;7.982;2023-04-06T12:25:25;3.47;;;1.30;;
47367;SDS011;34646;47.964;7.982;2023-04-06T12:31:26;9.63;;;1.50;;
47367;SDS011;34646;47.964;7.982;2023-04-06T12:37:26;2.97;;;1.23;;
47367;SDS011;34646;47.964;7.982;2023-04-06T12:43:27;7.33;;;1.40;;
47367;SDS011;34646;47.964;7.982;2023-04-06T12:49:28;4.77;;;1.37;;
47367;SDS011;34646;47.964;7.982;2023-04-06T12:55:29;7.47;;;1.60;;
47367;SDS011;34646;47.964;7.982;2023-04-06T13:01:31;5.38;;;1.42;;
47367;SDS011;34646;47.964;7.982;2023-04-06T13:07:32;5.35;;;1.10;;
47367;SDS011;34646;47.964;7.982;2023-04-06T13:13:33;5.67;;;1.23;;
47367;SDS011;34646;47.964;7.982;2023-04-06T13:19:34;9.07;;;1.27;;
47367;SDS011;34646;47.964;7.982;2023-04-06T13:25:35;5.87;;;1.47;;
47367;SDS011;34646;47.964;7.982;2023-04-06T13:31:36;2.17;;;1.13;;
47367;SDS011;34646;47.964;7.982;2023-04-06T13:37:38;2.45;;;1.00;;
47367;SDS011;34646;47.964;7.982;2023-04-06T13:43:38;5.20;;;1.40;;
47367;SDS011;34646;47.964;7.982;2023-04-06T13:49:39;2.00;;;1.00;;
47367;SDS011;34646;47.964;7.982;2023-04-06T13:55:40;3.27;;;1.30;;
47367;SDS011;34646;47.964;7.982;2023-04-06T14:01:40;1.70;;;0.80;;
47367;SDS011;34646;47.964;7.982;2023-04-06T14:07:41;5.37;;;1.10;;
47367;SDS011;34646;47.964;7.982;2023-04-06T14:13:42;4.60;;;1.20;;
47367;SDS011;34646;47.964;7.982;2023-04-06T14:19:42;3.50;;;0.97;;
47367;SDS011;34646;47.964;7.982;2023-04-06T14:25:43;2.00;;;0.90;;
47367;SDS011;34646;47.964;7.982;2023-04-06T14:31:47;2.50;;;1.10;;
47367;SDS011;34646;47.964;7.982;2023-04-06T14:37:48;1.52;;;0.77;;
47367;SDS011;34646;47.964;7.982;2023-04-06T14:43:50;1.42;;;0.75;;
47367;SDS011;34646;47.964;7.982;2023-04-06T14:49:52;1.75;;;0.77;;
47367;SDS011;34646;47.964;7.982;2023-04-06T14:55:53;1.93;;;0.83;;
47367;SDS011;34646;47.964;7.982;2023-04-06T15:01:54;1.85;;;0.98;;
47367;SDS011;34646;47.964;7.982;2023-04-06T15:07:56;4.40;;;1.10;;
47367;SDS011;34646;47.964;7.982;2023-04-06T15:13:56;3.03;;;0.87;;
47367;SDS011;34646;47.964;7.982;2023-04-06T15:19:57;3.70;;;0.80;;
47367;SDS011;34646;47.964;7.982;2023-04-06T15:25:58;3.73;;;0.70;;
47367;SDS011;34646;47.964;7.982;2023-04-06T15:31:58;1.77;;;0.80;;
47367;SDS011;34646;47.964;7.982;2023-04-06T15:37:59;2.20;;;1.13;;
47367;SDS011;34646;47.964;7.982;2023-04-06T15:44:01;1.52;;;1.00;;
47367;SDS011;34646;47.964;7.982;2023-04-06T15:50:02;1.73;;;0.90;;
47367;SDS011;34646;47.964;7.982;2023-04-06T15:56:04;2.63;;;0.90;;
47367;SDS011;34646;47.964;7.982;2023-04-06T16:02:07;3.15;;;0.98;;
47367;SDS011;34646;47.964;7.982;2023-04-06T16:08:08;4.10;;;0.90;;
47367;SDS011;34646;47.964;7.982;2023-04-06T16:14:09;4.97;;;1.00;;
47367;SDS011;34646;47.964;7.982;2023-04-06T16:20:10;2.97;;;1.00;;
47367;SDS011;34646;47.964;7.982;2023-04-06T16:26:12;2.88;;;0.80;;
47367;SDS011;34646;47.964;7.982;2023-04-06T16:32:14;2.10;;;0.90;;
47367;SDS011;34646;47.964;7.982;2023-04-06T16:38:15;4.53;;;1.27;;
47367;SDS011;34646;47.964;7.982;2023-04-06T16:44:16;6.20;;;1.10;;
47367;SDS011;34646;47.964;7.982;2023-04-06T16:50:17;4.77;;;1.03;;
47367;SDS011;34646;47.964;7.982;2023-04-06T16:56:18;6.47;;;1.43;;
47367;SDS011;34646;47.964;7.982;2023-04-06T17:02:19;3.75;;;0.90;;
47367;SDS011;34646;47.964;7.982;2023-04-06T17:08:20;5.13;;;1.10;;
47367;SDS011;34646;47.964;7.982;2023-04-06T17:14:21;2.83;;;0.87;;
47367;SDS011;34646;47.964;7.982;2023-04-06T17:20:21;4.33;;;1.20;;
47367;SDS011;34646;47.964;7.982;2023-04-06T17:26:22;5.33;;;1.07;;
47367;SDS011;34646;47.964;7.982;2023-04-06T17:32:23;2.07;;;1.00;;
47367;SDS011;34646;47.964;7.982;2023-04-06T17:38:24;7.80;;;1.77;;
47367;SDS011;34646;47.964;7.982;2023-04-06T17:44:25;3.73;;;1.37;;
47367;SDS011;34646;47.964;7.982;2023-04-06T17:50:25;6.53;;;1.10;;
47367;SDS011;34646;47.964;7.982;2023-04-06T17:56:26;4.20;;;1.10;;
47367;SDS011;34646;47.964;7.982;2023-04-06T18:02:27;5.10;;;1.00;;
47367;SDS011;34646;47.964;7.982;2023-04-06T18:08:27;3.57;;;0.70;;
47367;SDS011;34646;47.964;7.982;2023-04-06T18:14:28;2.53;;;0.90;;
47367;SDS011;34646;47.964;7.982;2023-04-06T18:20:30;1.70;;;0.90;;
47367;SDS011;34646;47.964;7.982;2023-04-06T18:26:31;3.30;;;1.33;;
47367;SDS011;34646;47.964;7.982;2023-04-06T18:32:32;2.45;;;0.95;;
47367;SDS011;34646;47.964;7.982;2023-04-06T18:38:33;3.23;;;1.60;;
47367;SDS011;34646;47.964;7.982;2023-04-06T18:44:33;3.83;;;0.97;;
47367;SDS011;34646;47.964;7.982;2023-04-06T18:50:35;1.90;;;0.80;;
47367;SDS011;34646;47.964;7.982;2023-04-06T18:56:35;4.10;;;0.90;;
47367;SDS011;34646;47.964;7.982;2023-04-06T19:02:37;3.13;;;1.17;;
47367;SDS011;34646;47.964;7.982;2023-04-06T19:08:38;4.67;;;1.10;;
47367;SDS011;34646;47.964;7.982;2023-04-06T19:14:39;1.70;;;0.80;;
47367;SDS011;34646;47.964;7.982;2023-04-06T19:20:40;2.63;;;0.90;;
47367;SDS011;34646;47.964;7.982;2023-04-06T19:26:41;3.23;;;0.70;;
47367;SDS011;34646;47.964;7.982;2023-04-06T19:32:42;2.40;;;0.70;;
47367;SDS011;34646;47.964;7.982;2023-04-06T19:38:43;4.93;;;0.97;;
47367;SDS011;34646;47.964;7.982;2023-04-06T19:44:44;3.07;;;0.90;;
47367;SDS011;34646;47.964;7.982;2023-04-06T19:50:45;2.27;;;0.63;;
47367;SDS011;34646;47.964;7.982;2023-04-06T19:56:45;1.77;;;0.90;;
47367;SDS011;34646;47.964;7.982;2023-04-06T20:02:47;4.53;;;0.82;;
47367;SDS011;34646;47.964;7.982;2023-04-06T20:08:47;2.03;;;0.80;;
47367;SDS011;34646;47.964;7.982;2023-04-06T20:14:48;2.80;;;0.93;;
47367;SDS011;34646;47.964;7.982;2023-04-06T20:20:50;2.20;;;0.93;;
47367;SDS011;34646;47.964;7.982;2023-04-06T20:26:51;2.43;;;0.90;;
47367;SDS011;34646;47.964;7.982;2023-04-06T20:32:51;1.50;;;0.70;;
47367;SDS011;34646;47.964;7.982;2023-04-06T20:38:53;2.77;;;1.13;;
47367;SDS011;34646;47.964;7.982;2023-04-06T20:44:53;1.73;;;1.00;;
47367;SDS011;34646;47.964;7.982;2023-04-06T20:50:56;1.38;;;0.85;;
47367;SDS011;34646;47.964;7.982;2023-04-06T20:56:58;1.75;;;0.70;;
47367;SDS011;34646;47.964;7.982;2023-04-06T21:03:02;1.65;;;0.73;;
47367;SDS011;34646;47.964;7.982;2023-04-06T21:09:02;2.27;;;0.77;;
47367;SDS011;34646;47.964;7.982;2023-04-06T21:15:03;1.43;;;0.60;;
47367;SDS011;34646;47.964;7.982;2023-04-06T21:21:04;4.23;;;0.80;;
47367;SDS011;34646;47.964;7.982;2023-04-06T21:27:05;1.83;;;0.70;;
47367;SDS011;34646;47.964;7.982;2023-04-06T21:33:06;1.37;;;0.80;;
47367;SDS011;34646;47.964;7.982;2023-04-06T21:39:08;1.80;;;1.00;;
47367;SDS011;34646;47.964;7.982;2023-04-06T21:45:09;1.43;;;0.60;;
47367;SDS011;34646;47.964;7.982;2023-04-06T21:51:15;2.03;;;0.80;;
47367;SDS011;34646;47.964;7.982;2023-04-06T21:57:16;1.77;;;0.75;;
47367;SDS011;34646;47.964;7.982;2023-04-06T22:03:17;1.63;;;0.80;;
47367;SDS011;34646;47.964;7.982;2023-04-06T22:09:17;1.53;;;1.20;;
47367;SDS011;34646;47.964;7.982;2023-04-06T22:15:18;2.33;;;0.67;;
47367;SDS011;34646;47.964;7.982;2023-04-06T22:21:19;1.40;;;0.90;;
47367;SDS011;34646;47.964;7.982;2023-04-06T22:27:20;1.43;;;0.60;;
47367;SDS011;34646;47.964;7.982;2023-04-06T22:33:21;1.40;;;0.77;;
47367;SDS011;34646;47.964;7.982;2023-04-06T22:39:21;1.17;;;0.60;;
47367;SDS011;34646;47.964;7.982;2023-04-06T22:45:22;1.33;;;0.60;;
47367;SDS011;34646;47.964;7.982;2023-04-06T22:51:23;1.27;;;0.70;;
47367;SDS011;34646;47.964;7.982;2023-04-06T22:57:24;1.03;;;0.80;;
47367;SDS011;34646;47.964;7.982;2023-04-06T23:03:25;1.47;;;0.93;;
47367;SDS011;34646;47.964;7.982;2023-04-06T23:09:26;1.33;;;0.80;;
47367;SDS011;34646;47.964;7.982;2023-04-06T23:15:27;0.63;;;0.50;;
47367;SDS011;34646;47.964;7.982;2023-04-06T23:21:28;2.60;;;0.60;;
47367;SDS011;34646;47.964;7.982;2023-04-06T23:27:29;1.20;;;0.70;;
47367;SDS011;34646;47.964;7.982;2023-04-06T23:33:29;2.27;;;0.90;;
47367;SDS011;34646;47.964;7.982;2023-04-06T23:39:30;2.10;;;1.00;;
47367;SDS011;34646;47.964;7.982;2023-04-06T23:45:31;1.50;;;0.80;;
47367;SDS011;34646;47.964;7.982;2023-04-06T23:51:32;1.10;;;0.60;;
47367;SDS011;34646;47.964;7.982;2023-04-06T23:57:32;1.47;;;0.70;;
